General Aviation Weather

Text Reports

Enter one or more of the following location identifiers separated by a space:

Zip Code, Four-Character ICAO or Three-Character IATA airport codes.

METAR - Aviation Routine Weather Report
KAAO - Wichita Jabara, Kansas
Updated at 7:54 AM GMT on September 17, 2014 (2:54 AM CDT):
METAR KAAO 170754Z AUTO 17009KT 7SM CLR 19/18 A2996 RMK AO2 SLP138 T01890178
TAF - Terminal Area Forecast
KAAO - Wichita Jabara, Kansas
Updated at 7:54 AM GMT on September 17, 2014 (2:54 AM CDT):
No TAF is currently available for this location.
Decoded:
No decoded TAF is available.
PIREP - Pilot Weather Report
KAAO - Wichita Jabara, Kansas
Updated at 7:54 AM GMT on September 17, 2014 (2:54 AM CDT):
No PIREP is currently available for this location.
AIRMET - Airmens Meteorological Information
KAAO - Wichita Jabara, Kansas
Updated at 7:54 AM GMT on September 17, 2014 (2:54 AM CDT):
No AIRMET is currently available for this location.
SIGMET - Significant Meteorological Information
KAAO - Wichita Jabara, Kansas
Updated at 7:54 AM GMT on September 17, 2014 (2:54 AM CDT):
No SIGMET is currently available for this location.
NOTAM - Notice to Airmen
KAAO - Wichita Jabara, Kansas
Updated at 7:54 AM GMT on September 17, 2014 (2:54 AM CDT):
No NOTAM is currently available for this location.
Forecast Area
KAAO - Wichita Jabara, Kansas
Updated at 7:54 AM GMT on September 17, 2014 (2:54 AM CDT):
No NOTAM is currently available for this location.
Aviation Weather Maps